Time;durP1;ratioP1;P1;durP2;ratioP2;P2;SDS_P1;SDS_P2;PMS_P1;PMS_P2;Temp;Humidity;BMP_temperature;BMP_pressure;BME280_temperature;BME280_humidity;BME280_pressure;Samples;Min_cycle;Max_cycle;Signal;HPM_P1;HPM_P2
2023/04/04 00:01:32;;;;;;;3.43;2.47;;;;;;;0.56;70.60;102305.69;5098660;28;20196;-69
2023/04/04 00:03:58;;;;;;;7.43;2.53;;;;;;;0.54;70.68;102302.16;5093656;28;20197;-70
2023/04/04 00:06:25;;;;;;;4.77;2.57;;;;;;;0.51;71.09;102299.56;5099152;28;20227;-71
2023/04/04 00:08:51;;;;;;;7.60;3.33;;;;;;;0.50;71.11;102305.66;5098565;28;20204;-70
2023/04/04 00:11:20;;;;;;;3.67;2.83;;;;;;;0.48;70.80;102299.53;5103960;28;20723;-70
2023/04/04 00:13:47;;;;;;;4.03;2.30;;;;;;;0.45;70.86;102302.16;5100365;28;20312;-70
2023/04/04 00:16:13;;;;;;;4.27;2.80;;;;;;;0.40;70.84;102298.63;5097999;28;20227;-70
2023/04/04 00:18:40;;;;;;;4.63;2.63;;;;;;;0.35;70.59;102301.25;5093587;28;20203;-70
2023/04/04 00:21:06;;;;;;;4.20;2.37;;;;;;;0.30;70.91;102302.94;5097925;28;20200;-70
2023/04/04 00:23:33;;;;;;;4.67;2.67;;;;;;;0.26;70.82;102302.06;5098147;27;20264;-70
2023/04/04 00:25:59;;;;;;;3.37;2.37;;;;;;;0.23;71.25;102301.16;5100714;28;20702;-70
2023/04/04 00:28:27;;;;;;;4.50;2.70;;;;;;;0.19;71.44;102297.63;5100163;28;20222;-70
2023/04/04 00:30:54;;;;;;;4.40;3.30;;;;;;;0.17;71.46;102312.50;5099327;28;20224;-71
2023/04/04 00:33:21;;;;;;;4.87;2.40;;;;;;;0.16;71.82;102307.25;5101824;27;20204;-70
2023/04/04 00:35:48;;;;;;;5.23;3.53;;;;;;;0.15;72.06;102308.13;5100913;28;20200;-69
2023/04/04 00:38:15;;;;;;;3.97;2.60;;;;;;;0.14;72.21;102303.75;5097796;28;20215;-70
2023/04/04 00:40:43;;;;;;;4.00;2.73;;;;;;;0.13;72.02;102304.59;5098019;28;20196;-69
2023/04/04 00:43:10;;;;;;;4.93;2.83;;;;;;;0.12;72.19;102297.59;5091329;28;20204;-69
2023/04/04 00:45:38;;;;;;;4.03;2.97;;;;;;;0.10;72.01;102309.81;5101679;28;20637;-70
2023/04/04 00:48:05;;;;;;;5.33;2.37;;;;;;;0.06;72.00;102302.81;5097023;28;20214;-70
2023/04/04 00:50:32;;;;;;;4.50;2.60;;;;;;;0.00;71.81;102303.66;5101880;28;20220;-70
2023/04/04 00:52:58;;;;;;;4.03;2.50;;;;;;;-0.07;71.69;102301.84;5097946;28;20232;-70
2023/04/04 00:55:26;;;;;;;5.10;3.23;;;;;;;-0.13;72.07;102302.69;5100590;28;20204;-70
2023/04/04 00:57:52;;;;;;;3.03;2.50;;;;;;;-0.17;72.15;102302.63;5099227;28;20257;-70
2023/04/04 01:00:19;;;;;;;4.53;2.53;;;;;;;-0.20;72.86;102305.25;5103365;28;20199;-70
2023/04/04 01:02:47;;;;;;;4.80;2.70;;;;;;;-0.24;72.54;102304.38;5099611;28;20192;-70
2023/04/04 01:05:14;;;;;;;5.50;2.77;;;;;;;-0.27;72.87;102293.84;5103003;28;20210;-70
2023/04/04 01:07:41;;;;;;;3.67;2.67;;;;;;;-0.28;73.07;102294.72;5096170;28;20672;-70
2023/04/04 01:10:09;;;;;;;4.40;2.70;;;;;;;-0.29;72.95;102297.31;5097079;28;20703;-71
2023/04/04 01:12:36;;;;;;;6.37;3.23;;;;;;;-0.32;73.50;102292.94;5094392;28;20297;-69
2023/04/04 01:15:02;;;;;;;5.80;3.33;;;;;;;-0.33;73.80;102288.56;5100046;28;20211;-71
2023/04/04 01:17:29;;;;;;;4.53;3.40;;;;;;;-0.35;73.38;102293.78;5096980;28;20223;-70
2023/04/04 01:20:02;;;;;;;7.93;3.37;;;;;;;-0.37;73.62;102297.28;5101572;28;20199;-70
2023/04/04 01:22:30;;;;;;;5.37;3.70;;;;;;;-0.38;73.70;102298.16;5099875;28;20211;-70
2023/04/04 01:24:58;;;;;;;6.43;3.23;;;;;;;-0.38;73.83;102298.16;5097995;28;20234;-70
2023/04/04 01:27:25;;;;;;;5.33;3.30;;;;;;;-0.40;74.12;102299.88;5096494;28;20746;-71
2023/04/04 01:29:53;;;;;;;5.53;3.23;;;;;;;-0.39;74.29;102299.00;5093402;28;20670;-70
2023/04/04 01:32:23;;;;;;;6.80;3.37;;;;;;;-0.43;74.19;102303.34;5098114;28;20215;-70
2023/04/04 01:34:56;;;;;;;5.10;3.17;;;;;;;-0.43;73.98;102297.22;5095956;28;20202;-70
2023/04/04 01:37:30;;;;;;;6.13;3.80;;;;;;;-0.46;74.10;102295.47;5098112;28;20223;-70
2023/04/04 01:40:04;;;;;;;5.97;3.30;;;;;;;-0.50;74.34;102291.06;5096219;28;20219;-71
2023/04/04 01:42:33;;;;;;;4.43;3.43;;;;;;;-0.52;73.95;102282.31;5098516;28;20208;-71
2023/04/04 01:44:59;;;;;;;6.53;3.80;;;;;;;-0.53;74.16;102287.53;5091600;28;20193;-70
2023/04/04 01:47:26;;;;;;;5.33;3.37;;;;;;;-0.57;74.21;102275.31;5094960;28;20580;-70
2023/04/04 01:49:53;;;;;;;6.07;4.67;;;;;;;-0.59;74.13;102287.50;5095323;28;20397;-69
2023/04/04 01:52:19;;;;;;;4.60;3.00;;;;;;;-0.65;74.15;102280.47;5101119;28;20322;-69
2023/04/04 01:54:45;;;;;;;5.23;2.90;;;;;;;-0.72;73.79;102284.75;5098456;28;20205;-71
2023/04/04 01:57:12;;;;;;;3.97;3.17;;;;;;;-0.83;73.50;102273.31;5096101;28;20246;-69
2023/04/04 01:59:40;;;;;;;6.53;3.30;;;;;;;-0.91;73.93;102277.63;5094777;28;20721;-69
2023/04/04 02:02:07;;;;;;;4.10;3.43;;;;;;;-0.96;74.36;102276.69;5099347;28;20203;-69
2023/04/04 02:04:33;;;;;;;5.73;3.60;;;;;;;-0.99;74.87;102271.44;5097114;28;20200;-69
2023/04/04 02:07:00;;;;;;;5.13;3.57;;;;;;;-1.01;74.76;102273.16;5095271;28;20647;-68
2023/04/04 02:09:26;;;;;;;7.47;4.37;;;;;;;-1.02;75.26;102273.13;5092288;28;20284;-67
2023/04/04 02:11:53;;;;;;;6.47;4.27;;;;;;;-1.05;75.26;102271.34;5089123;28;20463;-68
2023/04/04 02:14:20;;;;;;;8.07;4.83;;;;;;;-1.06;75.49;102269.59;5095771;28;20771;-69
2023/04/04 02:16:48;;;;;;;5.70;4.43;;;;;;;-1.09;75.68;102267.88;5100341;28;20219;-68
2023/04/04 02:19:15;;;;;;;6.50;3.97;;;;;;;-1.07;75.91;102273.06;5097196;28;20216;-68
2023/04/04 02:21:41;;;;;;;6.80;4.10;;;;;;;-1.07;76.44;102267.84;5101466;28;20438;-68
2023/04/04 02:24:08;;;;;;;7.47;4.27;;;;;;;-1.07;76.70;102260.00;5099438;28;20196;-68
2023/04/04 02:26:34;;;;;;;5.87;3.53;;;;;;;-1.07;76.77;102258.28;5099055;28;20319;-67
2023/04/04 02:29:01;;;;;;;6.13;4.07;;;;;;;-1.08;76.73;102253.94;5095979;28;20212;-68
2023/04/04 02:31:28;;;;;;;6.10;3.80;;;;;;;-1.09;76.67;102252.19;5094726;28;20224;-68
2023/04/04 02:33:56;;;;;;;9.07;3.60;;;;;;;-1.09;76.64;102256.53;5096911;28;20454;-68
2023/04/04 02:36:22;;;;;;;6.40;4.27;;;;;;;-1.10;77.03;102252.16;5096412;28;20220;-68
2023/04/04 02:38:49;;;;;;;6.23;3.90;;;;;;;-1.10;77.03;102254.78;5094250;28;20208;-68
2023/04/04 02:41:16;;;;;;;7.23;3.70;;;;;;;-1.10;77.09;102253.03;5098363;28;20561;-68
2023/04/04 02:43:42;;;;;;;5.27;3.50;;;;;;;-1.11;77.09;102255.63;5091440;28;20204;-68
2023/04/04 02:46:09;;;;;;;5.17;3.40;;;;;;;-1.16;76.54;102247.72;5094727;28;20230;-69
2023/04/04 02:48:36;;;;;;;3.77;3.13;;;;;;;-1.23;76.29;102247.66;5101102;28;20238;-68
2023/04/04 02:51:03;;;;;;;5.03;4.00;;;;;;;-1.32;76.36;102244.94;5099190;28;20309;-69
2023/04/04 02:53:30;;;;;;;6.87;3.20;;;;;;;-1.40;76.60;102237.88;5095782;28;20203;-68
2023/04/04 02:55:56;;;;;;;7.37;4.00;;;;;;;-1.46;76.54;102239.56;5100217;27;20753;-68
2023/04/04 02:58:23;;;;;;;3.93;3.07;;;;;;;-1.52;76.96;102237.75;5096132;28;20204;-67
2023/04/04 03:00:54;;;;;;;6.17;3.27;;;;;;;-1.52;77.15;102224.69;5097563;28;20701;-69
2023/04/04 03:03:21;;;;;;;4.27;3.53;;;;;;;-1.53;77.28;102228.16;5100548;28;20208;-68
2023/04/04 03:05:48;;;;;;;5.53;3.70;;;;;;;-1.53;77.99;102227.28;5101146;27;20285;-68
2023/04/04 03:08:16;;;;;;;5.60;4.03;;;;;;;-1.55;77.99;102234.22;5100843;28;20616;-69
2023/04/04 03:10:44;;;;;;;6.77;3.60;;;;;;;-1.59;77.79;102225.47;5098258;28;20268;-68
2023/04/04 03:13:11;;;;;;;6.13;4.30;;;;;;;-1.63;77.52;102226.31;5100275;28;20207;-68
2023/04/04 03:15:39;;;;;;;7.13;4.17;;;;;;;-1.63;78.23;102220.22;5097489;28;20201;-69
2023/04/04 03:18:06;;;;;;;6.63;3.83;;;;;;;-1.64;78.33;102221.94;5094748;28;20654;-69
2023/04/04 03:20:32;;;;;;;5.93;4.13;;;;;;;-1.66;78.98;102213.22;5099588;28;20196;-69
2023/04/04 03:22:59;;;;;;;6.03;3.70;;;;;;;-1.66;78.60;102210.59;5099401;28;20681;-68
2023/04/04 03:25:26;;;;;;;7.33;4.10;;;;;;;-1.64;78.91;102206.28;5097632;28;20830;-68
2023/04/04 03:27:53;;;;;;;6.10;4.17;;;;;;;-1.63;78.87;102210.66;5098468;28;20228;-68
2023/04/04 03:30:19;;;;;;;8.10;3.93;;;;;;;-1.63;79.30;102204.53;5098703;27;20495;-69
2023/04/04 03:32:46;;;;;;;6.47;3.93;;;;;;;-1.63;79.15;102205.44;5101985;28;20235;-69
2023/04/04 03:35:12;;;;;;;5.97;3.80;;;;;;;-1.64;79.66;102203.66;5098948;28;20208;-69
2023/04/04 03:37:39;;;;;;;6.73;4.33;;;;;;;-1.62;79.34;102201.94;5101227;28;20226;-68
2023/04/04 03:40:08;;;;;;;6.60;4.20;;;;;;;-1.62;79.76;102207.19;5098050;28;20207;-68
2023/04/04 03:42:36;;;;;;;6.13;3.77;;;;;;;-1.64;79.42;102211.50;5099718;27;20226;-68
2023/04/04 03:45:02;;;;;;;11.67;3.80;;;;;;;-1.64;79.43;102208.00;5094849;28;20731;-69
2023/04/04 03:47:29;;;;;;;7.53;3.53;;;;;;;-1.66;80.01;102205.38;5097730;28;20466;-67
2023/04/04 03:49:56;;;;;;;8.13;3.80;;;;;;;-1.67;79.85;102197.53;5098321;28;20210;-68
2023/04/04 03:52:22;;;;;;;5.40;3.67;;;;;;;-1.69;79.59;102194.00;5100911;28;20227;-68
2023/04/04 03:54:49;;;;;;;5.23;3.90;;;;;;;-1.74;79.38;102199.19;5097754;28;20218;-68
2023/04/04 03:57:15;;;;;;;6.07;3.70;;;;;;;-1.76;80.00;102198.28;5096238;27;20411;-68
2023/04/04 03:59:43;;;;;;;5.93;3.60;;;;;;;-1.79;80.15;102199.13;5098806;28;20216;-69
2023/04/04 04:02:09;;;;;;;5.17;3.57;;;;;;;-1.78;80.22;102189.53;5095181;28;20202;-69
2023/04/04 04:04:36;;;;;;;6.07;3.30;;;;;;;-1.78;80.38;102195.66;5095641;27;20586;-69
2023/04/04 04:07:02;;;;;;;4.63;3.20;;;;;;;-1.79;80.32;102196.50;5096411;28;20760;-69
2023/04/04 04:09:29;;;;;;;5.67;3.10;;;;;;;-1.83;79.70;102186.91;5095653;28;20770;-69
2023/04/04 04:11:55;;;;;;;6.30;3.03;;;;;;;-1.84;79.96;102189.50;5095996;28;20223;-68
2023/04/04 04:14:22;;;;;;;3.97;3.10;;;;;;;-1.87;80.22;102187.72;5097547;28;20208;-68
2023/04/04 04:16:50;;;;;;;7.70;3.37;;;;;;;-1.90;79.95;102185.06;5099573;28;20231;-69
2023/04/04 04:19:16;;;;;;;6.57;3.43;;;;;;;-1.90;79.85;102202.47;5100518;28;20208;-68
2023/04/04 04:21:43;;;;;;;5.43;3.30;;;;;;;-1.93;79.55;102189.38;5095176;28;20200;-68
2023/04/04 04:24:10;;;;;;;6.83;3.20;;;;;;;-1.96;79.61;102199.78;5098848;28;20199;-69
2023/04/04 04:26:36;;;;;;;6.13;3.43;;;;;;;-2.00;80.16;102192.78;5088400;28;20305;-68
2023/04/04 04:29:03;;;;;;;4.73;3.10;;;;;;;-2.03;80.42;102193.63;5097263;28;20207;-69
2023/04/04 04:31:30;;;;;;;5.00;2.97;;;;;;;-2.05;79.82;102192.72;5088242;27;20220;-68
2023/04/04 04:33:58;;;;;;;4.63;2.80;;;;;;;-2.05;80.60;102192.72;5087205;28;20203;-69
2023/04/04 04:36:24;;;;;;;5.07;2.77;;;;;;;-2.04;80.12;102190.97;5095338;28;20742;-69
2023/04/04 04:38:51;;;;;;;9.27;3.20;;;;;;;-2.02;80.92;102197.09;5089913;28;20216;-67
2023/04/04 04:41:17;;;;;;;5.27;3.57;;;;;;;-2.01;80.77;102196.25;5091009;28;20200;-69
2023/04/04 04:43:44;;;;;;;4.63;3.33;;;;;;;-2.01;80.88;102191.03;5097944;28;20917;-68
2023/04/04 04:46:10;;;;;;;6.93;3.80;;;;;;;-1.99;80.43;102199.75;5094069;28;20212;-69
2023/04/04 04:48:36;;;;;;;5.67;3.97;;;;;;;-1.99;80.55;102199.75;5096188;27;20693;-69
2023/04/04 04:51:04;;;;;;;6.60;4.63;;;;;;;-1.99;80.51;102197.16;5096895;28;20433;-69
2023/04/04 04:53:31;;;;;;;9.53;5.80;;;;;;;-1.99;80.53;102199.75;5095335;28;20200;-68
2023/04/04 04:55:58;;;;;;;7.47;5.57;;;;;;;-1.98;80.95;102204.13;5084808;28;20307;-69
2023/04/04 04:58:24;;;;;;;8.70;4.90;;;;;;;-1.98;80.62;102199.78;5095207;27;20283;-69
2023/04/04 05:00:55;;;;;;;7.73;4.77;;;;;;;-1.98;80.79;102196.28;5095494;28;20838;-69
2023/04/04 05:03:21;;;;;;;4.60;3.70;;;;;;;-1.97;80.86;102200.66;5087638;27;20250;-68
2023/04/04 05:05:48;;;;;;;7.03;4.17;;;;;;;-1.97;81.15;102203.28;5085114;28;20212;-68
2023/04/04 05:08:16;;;;;;;7.33;4.00;;;;;;;-2.01;80.74;102206.69;5088738;28;20593;-69
2023/04/04 05:10:42;;;;;;;6.63;4.13;;;;;;;-2.05;80.39;102207.50;5092069;28;20207;-69
2023/04/04 05:13:09;;;;;;;7.10;3.70;;;;;;;-2.09;80.85;102206.56;5093361;28;20780;-69
2023/04/04 05:15:35;;;;;;;4.47;3.47;;;;;;;-2.12;80.91;102204.78;5096869;28;20211;-68
2023/04/04 05:18:02;;;;;;;4.03;3.63;;;;;;;-2.13;80.92;102208.25;5099142;28;20196;-69
2023/04/04 05:20:28;;;;;;;5.87;3.50;;;;;;;-2.12;81.32;102215.25;5098177;28;20787;-70
2023/04/04 05:22:55;;;;;;;5.37;3.57;;;;;;;-2.11;81.58;102216.13;5100599;28;20200;-69
2023/04/04 05:25:23;;;;;;;5.37;3.53;;;;;;;-2.10;81.45;102220.47;5097492;28;20291;-69
2023/04/04 05:27:49;;;;;;;6.23;3.43;;;;;;;-2.09;81.11;102217.00;5079783;28;21235;-68
2023/04/04 05:30:16;;;;;;;4.00;2.80;;;;;;;-2.10;81.08;102229.19;5089245;28;20674;-69
2023/04/04 05:32:45;;;;;;;5.00;3.17;;;;;;;-2.11;81.58;102227.44;5090049;28;20308;-69
2023/04/04 05:35:11;;;;;;;5.50;2.80;;;;;;;-2.08;81.91;102225.72;5093097;28;20908;-69
2023/04/04 05:37:40;;;;;;;5.27;3.60;;;;;;;-2.07;82.18;102233.59;5094925;28;20223;-68
2023/04/04 05:40:08;;;;;;;4.67;3.03;;;;;;;-2.05;81.79;102233.59;5094952;28;20196;-69
2023/04/04 05:42:36;;;;;;;4.53;2.70;;;;;;;-2.03;82.24;102229.28;5092689;28;20201;-69
2023/04/04 05:45:02;;;;;;;4.43;3.00;;;;;;;-1.98;82.34;102235.44;5092687;28;20201;-69
2023/04/04 05:47:29;;;;;;;6.80;3.10;;;;;;;-1.93;82.49;102242.47;5090479;28;20223;-68
2023/04/04 05:49:55;;;;;;;4.63;3.20;;;;;;;-1.89;82.55;102244.28;5092508;28;20214;-69
2023/04/04 05:52:22;;;;;;;7.10;3.07;;;;;;;-1.81;82.62;102241.78;5100463;28;20680;-68
2023/04/04 05:54:48;;;;;;;7.80;3.63;;;;;;;-1.73;83.46;102240.13;5099656;28;20200;-69
2023/04/04 05:57:15;;;;;;;8.80;5.30;;;;;;;-1.68;83.01;102241.06;5098944;28;20223;-69
2023/04/04 05:59:43;;;;;;;12.90;5.60;;;;;;;-1.62;83.12;102243.75;5100205;28;20229;-69
2023/04/04 06:02:09;;;;;;;6.73;4.17;;;;;;;-1.55;83.43;102248.16;5098290;28;20203;-68
2023/04/04 06:04:35;;;;;;;5.00;3.30;;;;;;;-1.49;83.73;102242.16;5095977;28;20206;-69
2023/04/04 06:07:02;;;;;;;6.33;4.27;;;;;;;-1.43;83.43;102243.06;5092283;28;20235;-69
2023/04/04 06:09:29;;;;;;;5.87;3.80;;;;;;;-1.34;84.11;102249.28;5097025;28;20692;-69
2023/04/04 06:11:56;;;;;;;5.40;3.77;;;;;;;-1.28;84.20;102244.13;5094111;28;20268;-68
2023/04/04 06:14:22;;;;;;;8.93;5.03;;;;;;;-1.23;84.18;102247.66;5092199;28;20242;-68
2023/04/04 06:16:50;;;;;;;6.97;4.73;;;;;;;-1.16;84.05;102241.63;5102059;28;20219;-69
2023/04/04 06:19:16;;;;;;;8.07;5.03;;;;;;;-1.08;84.54;102247.81;5096085;28;20207;-69
2023/04/04 06:21:43;;;;;;;7.30;5.20;;;;;;;-1.01;84.17;102244.38;5092853;28;20211;-69
2023/04/04 06:24:09;;;;;;;9.33;5.03;;;;;;;-0.94;84.81;102243.59;5090958;28;20199;-69
2023/04/04 06:26:36;;;;;;;9.70;5.23;;;;;;;-0.85;84.67;102251.50;5092692;28;20235;-69
2023/04/04 06:29:03;;;;;;;6.33;4.93;;;;;;;-0.77;84.43;102251.59;5097704;27;20207;-69
2023/04/04 06:31:30;;;;;;;6.50;5.20;;;;;;;-0.68;84.64;102249.03;5099731;28;20651;-69
2023/04/04 06:34:00;;;;;;;8.13;5.60;;;;;;;-0.60;84.64;102255.22;5097313;28;20206;-69
2023/04/04 06:36:26;;;;;;;8.10;6.03;;;;;;;-0.51;84.63;102252.66;5097406;28;20219;-68
2023/04/04 06:38:53;;;;;;;9.90;6.97;;;;;;;-0.43;84.01;102255.34;5097587;27;20426;-67
2023/04/04 06:41:19;;;;;;;6.43;5.23;;;;;;;-0.36;84.38;102244.91;5091648;28;20214;-69
2023/04/04 06:43:47;;;;;;;9.40;5.40;;;;;;;-0.27;84.09;102248.47;5091177;28;20606;-69
2023/04/04 06:46:13;;;;;;;7.27;4.37;;;;;;;-0.18;83.93;102257.25;5098447;28;20608;-69
2023/04/04 06:48:40;;;;;;;7.97;5.17;;;;;;;-0.08;83.96;102245.97;5092659;27;20203;-68
2023/04/04 06:51:08;;;;;;;7.50;4.40;;;;;;;0.03;83.49;102256.50;5100257;28;20192;-69
2023/04/04 06:53:35;;;;;;;6.33;4.43;;;;;;;0.13;83.21;102254.84;5094970;28;20226;-69
2023/04/04 06:56:02;;;;;;;7.47;4.43;;;;;;;0.21;82.59;102260.97;5087913;28;20224;-69
2023/04/04 06:58:28;;;;;;;7.33;4.17;;;;;;;0.28;82.29;102255.78;5094391;27;20214;-69
2023/04/04 07:00:55;;;;;;;6.03;4.00;;;;;;;0.35;81.79;102259.31;5093038;28;20212;-69
2023/04/04 07:03:23;;;;;;;5.83;3.80;;;;;;;0.47;82.06;102259.34;5094196;28;20647;-69
2023/04/04 07:05:49;;;;;;;5.83;3.80;;;;;;;0.60;81.51;102258.50;5096305;28;20239;-69
2023/04/04 07:08:17;;;;;;;6.73;4.37;;;;;;;0.71;80.81;102257.69;5100438;27;20213;-70
2023/04/04 07:10:43;;;;;;;6.13;3.60;;;;;;;0.84;80.35;102264.69;5093976;28;20709;-68
2023/04/04 07:13:10;;;;;;;6.23;3.83;;;;;;;0.94;80.34;102256.84;5095824;28;20216;-70
2023/04/04 07:15:37;;;;;;;5.40;3.13;;;;;;;1.05;79.25;102264.75;5090351;27;20227;-70
2023/04/04 07:18:03;;;;;;;4.03;3.20;;;;;;;1.12;78.72;102263.88;5098173;28;20211;-70
2023/04/04 07:20:31;;;;;;;5.83;3.23;;;;;;;1.20;78.18;102267.38;5096595;27;20207;-71
2023/04/04 07:22:57;;;;;;;6.17;3.37;;;;;;;1.29;78.21;102270.00;5101181;28;20596;-70
2023/04/04 07:25:25;;;;;;;7.57;3.30;;;;;;;1.38;77.68;102263.91;5097707;28;20395;-72
2023/04/04 07:27:52;;;;;;;4.13;3.20;;;;;;;1.48;77.62;102265.63;5092225;27;20220;-72
2023/04/04 07:30:21;;;;;;;6.27;3.10;;;;;;;1.55;77.13;102270.03;5096158;27;20625;-71
2023/04/04 07:32:47;;;;;;;3.60;2.63;;;;;;;1.64;76.20;102269.13;5098841;27;20222;-73
2023/04/04 07:35:14;;;;;;;5.33;2.70;;;;;;;1.75;75.87;102264.75;5098425;27;20215;-73
2023/04/04 07:37:40;;;;;;;3.43;2.30;;;;;;;1.88;75.45;102271.72;5092003;28;20226;-73
2023/04/04 07:40:08;;;;;;;5.10;2.70;;;;;;;1.97;74.89;102260.34;5095376;28;20207;-73
2023/04/04 07:42:36;;;;;;;5.43;2.83;;;;;;;2.07;74.90;102268.19;5094674;28;20202;-73
2023/04/04 07:45:03;;;;;;;7.40;4.00;;;;;;;2.19;74.07;102259.38;5097012;28;20210;-72
2023/04/04 07:47:30;;;;;;;5.10;3.30;;;;;;;2.30;73.74;102262.00;5098978;27;20224;-72
2023/04/04 07:49:56;;;;;;;3.63;2.07;;;;;;;2.45;74.17;102254.03;5096697;28;20211;-72
2023/04/04 07:52:22;;;;;;;6.83;2.30;;;;;;;2.57;73.24;102255.72;5096675;27;20233;-70
2023/04/04 07:54:49;;;;;;;3.60;2.37;;;;;;;2.72;72.54;102253.88;5095532;28;20596;-71
2023/04/04 07:57:15;;;;;;;3.73;2.43;;;;;;;2.87;71.92;102258.19;5095184;28;20892;-69
2023/04/04 07:59:43;;;;;;;7.80;2.67;;;;;;;3.03;71.51;102251.09;5093101;28;20227;-69
2023/04/04 08:02:10;;;;;;;3.63;2.20;;;;;;;3.16;70.84;102243.97;5098104;28;20228;-71
2023/04/04 08:04:36;;;;;;;4.03;2.70;;;;;;;3.32;70.07;102246.47;5090471;28;20208;-70
2023/04/04 08:07:06;;;;;;;3.13;2.27;;;;;;;3.49;69.90;102254.22;5096304;28;20331;-71
2023/04/04 08:09:34;;;;;;;3.03;2.17;;;;;;;3.62;69.27;102250.59;5097160;28;20518;-71
2023/04/04 08:12:01;;;;;;;5.70;2.57;;;;;;;3.74;68.34;102241.72;5093201;28;20210;-71
2023/04/04 08:14:27;;;;;;;4.63;2.33;;;;;;;3.88;67.70;102236.31;5093909;28;20660;-70
2023/04/04 08:16:55;;;;;;;4.10;2.20;;;;;;;4.01;67.35;102244.06;5098178;28;20226;-71
2023/04/04 08:19:22;;;;;;;4.63;2.30;;;;;;;4.13;67.06;102245.66;5096915;28;20207;-70
2023/04/04 08:21:49;;;;;;;4.10;2.90;;;;;;;4.29;66.67;102241.13;5099234;28;20716;-70
2023/04/04 08:24:15;;;;;;;2.90;1.87;;;;;;;4.37;64.46;102244.53;5096013;28;20196;-71
2023/04/04 08:26:42;;;;;;;3.80;1.90;;;;;;;4.45;63.88;102243.53;5086499;28;20247;-70
2023/04/04 08:29:09;;;;;;;4.13;2.10;;;;;;;4.49;63.23;102247.88;5093246;28;20294;-72
2023/04/04 08:31:35;;;;;;;2.27;1.77;;;;;;;4.55;62.35;102241.66;5095690;28;20773;-70
2023/04/04 08:34:06;;;;;;;3.53;1.90;;;;;;;4.63;62.16;102242.44;5091199;28;20722;-71
2023/04/04 08:36:32;;;;;;;5.77;2.10;;;;;;;4.73;61.60;102245.81;5086173;28;20223;-71
2023/04/04 08:38:59;;;;;;;3.17;1.83;;;;;;;4.84;61.42;102234.19;5088044;28;20199;-69
2023/04/04 08:41:27;;;;;;;2.63;1.53;;;;;;;4.95;61.18;102239.34;5097072;27;20207;-70
2023/04/04 08:43:55;;;;;;;4.23;1.60;;;;;;;5.04;60.57;102239.19;5093971;27;20578;-70
2023/04/04 08:46:23;;;;;;;2.20;1.63;;;;;;;5.16;59.46;102238.13;5091477;28;20215;-70
2023/04/04 08:48:50;;;;;;;4.10;1.60;;;;;;;5.25;58.69;102235.34;5091990;28;20261;-68
2023/04/04 08:51:20;;;;;;;2.03;1.00;;;;;;;5.31;57.49;102235.25;5091179;28;20208;-68
2023/04/04 08:53:47;;;;;;;3.73;1.00;;;;;;;5.38;56.42;102244.78;5095980;28;20638;-70
2023/04/04 08:56:13;;;;;;;2.60;1.10;;;;;;;5.46;55.94;102234.13;5089116;28;20231;-69
2023/04/04 08:58:40;;;;;;;3.33;1.20;;;;;;;5.56;55.46;102230.41;5090486;28;20200;-69
2023/04/04 09:01:10;;;;;;;5.53;1.13;;;;;;;5.68;54.23;102230.22;5089235;28;20761;-70
2023/04/04 09:03:37;;;;;;;1.87;0.97;;;;;;;5.75;53.25;102229.19;5093635;28;20287;-70
2023/04/04 09:06:05;;;;;;;1.57;0.70;;;;;;;5.80;51.97;102227.31;5092826;28;20227;-70
2023/04/04 09:08:34;;;;;;;2.37;1.10;;;;;;;5.83;51.86;102222.00;5090745;27;20287;-70
2023/04/04 09:11:02;;;;;;;5.33;1.50;;;;;;;5.96;52.46;102232.34;5090048;28;20269;-69
2023/04/04 09:13:29;;;;;;;1.77;0.83;;;;;;;6.00;51.47;102227.00;5095553;28;20223;-70
2023/04/04 09:15:57;;;;;;;1.33;0.80;;;;;;;5.98;50.49;102226.16;5089710;28;20262;-68
2023/04/04 09:18:23;;;;;;;2.57;1.00;;;;;;;6.00;50.87;102227.00;5088400;28;20231;-69
2023/04/04 09:20:50;;;;;;;1.47;0.80;;;;;;;6.06;49.97;102228.66;5087247;28;20199;-68
2023/04/04 09:23:19;;;;;;;3.40;1.20;;;;;;;6.16;50.11;102216.97;5087518;27;20733;-68
2023/04/04 09:25:48;;;;;;;2.83;1.10;;;;;;;6.28;50.07;102219.34;5100574;27;20203;-68
2023/04/04 09:28:15;;;;;;;2.43;0.90;;;;;;;6.36;49.20;102209.50;5097025;27;20199;-69
2023/04/04 09:30:42;;;;;;;1.77;1.00;;;;;;;6.49;49.02;102212.75;5095087;28;20221;-69
2023/04/04 09:33:10;;;;;;;2.30;1.00;;;;;;;6.54;48.37;102197.66;5100912;28;20312;-71
2023/04/04 09:35:38;;;;;;;3.33;1.23;;;;;;;6.65;48.59;102205.34;5099331;28;20288;-76
2023/04/04 09:38:06;;;;;;;2.13;1.00;;;;;;;6.77;47.65;102205.97;5101102;28;20853;-79
2023/04/04 09:40:32;;;;;;;2.70;0.90;;;;;;;6.91;48.14;102213.56;5096979;28;20486;-79
2023/04/04 09:43:06;;;;;;;1.43;1.20;;;;;;;7.01;47.00;102211.56;5096519;28;20210;-77
2023/04/04 09:45:34;;;;;;;2.03;0.90;;;;;;;7.11;47.29;102211.34;5096775;28;20200;-77
2023/04/04 09:48:01;;;;;;;2.67;1.10;;;;;;;7.22;47.08;102213.72;5097556;28;20195;-79
2023/04/04 09:50:29;;;;;;;1.70;1.10;;;;;;;7.28;45.83;102219.75;5086692;28;20204;-74
2023/04/04 09:52:58;;;;;;;1.83;1.00;;;;;;;7.19;45.08;102213.78;5102448;28;20253;-75
2023/04/04 09:55:31;;;;;;;2.00;1.17;;;;;;;7.23;45.82;102210.16;5096452;28;20616;-77
2023/04/04 09:58:00;;;;;;;3.03;1.30;;;;;;;7.32;45.81;102212.59;5088131;27;20216;-73
2023/04/04 10:00:29;;;;;;;2.80;1.53;;;;;;;7.38;45.86;102212.41;5097003;28;20215;-77
2023/04/04 10:02:57;;;;;;;3.50;1.57;;;;;;;7.43;45.79;102212.31;5091510;28;20220;-79
2023/04/04 10:05:24;;;;;;;3.87;1.40;;;;;;;7.49;45.14;102199.78;5094816;28;20204;-77
2023/04/04 10:07:51;;;;;;;2.90;1.10;;;;;;;7.61;45.92;102204.75;5091514;28;20227;-77
2023/04/04 10:10:17;;;;;;;2.83;1.30;;;;;;;7.70;44.96;102206.31;5090718;28;20282;-78
2023/04/04 10:12:46;;;;;;;3.20;1.30;;;;;;;7.74;44.53;102209.72;5092246;28;20628;-78
2023/04/04 10:15:15;;;;;;;2.63;1.60;;;;;;;7.77;43.55;102207.84;5099082;28;20234;-77
2023/04/04 10:17:46;;;;;;;1.87;1.03;;;;;;;7.83;43.17;102206.84;5099071;28;20262;-76
2023/04/04 10:20:14;;;;;;;3.30;1.37;;;;;;;7.80;42.30;102207.78;5095814;28;20670;-78
2023/04/04 10:22:43;;;;;;;2.77;1.60;;;;;;;7.83;42.44;102204.19;5097474;28;20208;-77
2023/04/04 10:25:10;;;;;;;3.53;1.63;;;;;;;7.85;42.87;102213.84;5085486;28;20203;-76
2023/04/04 10:27:37;;;;;;;3.03;1.43;;;;;;;7.86;42.16;102206.75;5099513;28;20254;-79
2023/04/04 10:30:04;;;;;;;2.77;1.60;;;;;;;7.82;42.36;102199.78;5089795;28;20204;-76
2023/04/04 10:32:38;;;;;;;3.73;1.43;;;;;;;7.85;42.40;102197.06;5097227;27;20203;-74
2023/04/04 10:35:10;;;;;;;3.03;1.30;;;;;;;7.94;43.17;102199.44;5097854;28;20231;-77
2023/04/04 10:37:45;;;;;;;3.40;1.50;;;;;;;8.01;42.58;102196.59;5087450;27;20235;-76
2023/04/04 10:40:15;;;;;;;3.20;1.80;;;;;;;8.04;42.08;102197.41;5097687;28;20702;-77
2023/04/04 10:42:45;;;;;;;2.50;1.77;;;;;;;8.03;42.13;102188.59;5099282;28;20729;-77
2023/04/04 10:45:14;;;;;;;5.37;1.80;;;;;;;7.99;41.15;102186.91;5093842;27;20745;-75
2023/04/04 10:47:41;;;;;;;1.97;1.73;;;;;;;7.90;41.77;102189.81;5099795;28;20721;-77
2023/04/04 10:50:11;;;;;;;2.80;1.80;;;;;;;7.85;41.62;102186.44;5099353;28;20698;-79
2023/04/04 10:52:39;;;;;;;3.47;2.00;;;;;;;7.82;41.95;102184.75;5097505;28;20352;-75
2023/04/04 10:55:09;;;;;;;4.17;1.93;;;;;;;7.85;42.46;102178.50;5091677;28;20227;-77
2023/04/04 10:57:38;;;;;;;2.80;2.13;;;;;;;7.88;42.26;102171.28;5086714;28;20224;-76
2023/04/04 11:00:08;;;;;;;3.33;1.80;;;;;;;7.92;41.87;102158.81;5094218;28;20197;-75
2023/04/04 11:02:50;;;;;;;4.90;2.00;;;;;;;7.97;42.66;102164.88;5102979;28;20204;-80
2023/04/04 11:05:24;;;;;;;3.63;2.07;;;;;;;8.08;41.83;102162.75;5100128;28;20203;-80
2023/04/04 11:07:58;;;;;;;5.37;2.43;;;;;;;8.13;41.20;102155.53;5095316;28;20223;-73
2023/04/04 11:10:26;;;;;;;4.07;2.83;;;;;;;8.18;41.92;102158.94;5096328;28;20194;-73
2023/04/04 11:12:55;;;;;;;3.03;2.40;;;;;;;8.23;41.03;102159.69;5092994;28;20200;-73
2023/04/04 11:15:23;;;;;;;4.10;2.47;;;;;;;8.21;41.05;102147.38;5093005;28;20227;-73
2023/04/04 11:18:00;;;;;;;3.53;2.47;;;;;;;8.21;40.63;102142.06;5098755;28;20302;-73
2023/04/04 11:20:37;;;;;;;3.43;2.63;;;;;;;8.24;41.09;102134.03;5091387;28;20207;-72
2023/04/04 11:23:06;;;;;;;2.70;2.30;;;;;;;8.19;41.27;102142.09;5093444;28;20199;-73
2023/04/04 11:25:34;;;;;;;5.13;2.73;;;;;;;8.17;41.36;102128.00;5089283;28;20220;-73
2023/04/04 11:28:05;;;;;;;3.07;2.33;;;;;;;8.17;41.18;102125.34;5099246;28;20268;-74
2023/04/04 11:30:38;;;;;;;3.63;2.23;;;;;;;8.24;41.74;102131.38;5095851;28;20196;-73